Airfield :
LOGIN :

Register | Disclaimer

   EN    FR    IT 

 










Legend :    VFR   Marginal VFR   IFR   Intensive IFR   Very Intensive IFR
Visi :
Ceiling :
>= 8 km
>= 3000ft
5 to 8 km
1000 to 3000 ft
1500m to 5 km
500 to 1000 ft
800 to 1500m
200 to 500 ft
< 800m
< 200 ft
Symbols :   Thunderstorms  Fog  Heavy snow  Heavy precipitations  Wind > 20 kt
SIGMETs :     Misc.  Thunderstorms  Icing  Turbulence  Mountain Waves  Volcanic Ashes






- Airport Elevation : 37 ft


EHVL - Vlieland Heliport

CURRENT METAR :
  • 121325Z AUTO 18016KT 9999 FEW012 05/03 Q0994 BLU

EXPIRED METARs :
  • 121255Z AUTO 19019KT 9999 NCD 06/03 Q0994 BLU
  • 121225Z AUTO 19019KT 9999 FEW018 06/03 Q0995 BLU
  • 121208Z AUTO 18018KT 9999 SCT015 06/04 Q0995 WHT
  • 121155Z AUTO 19018KT 9999 FEW044 06/03 Q0995 BLU
  • 121125Z AUTO 18016KT 9999 FEW031 SCT050 06/03 Q0996 BLU
  • 121108Z AUTO 18015KT 9999 SCT024 OVC027 06/03 Q0996 WHT
  • 121055Z AUTO 19012KT 9999 FEW031 BKN035 BKN041 06/03 Q0996 BLU

Expired Forecast.



MET'MAP, your aeronautical weather chart ! - Copyright ORBIFLY December 2007 - Disclaimer

ORBIFLY MET'MAP TEAM :

Programming & Development : Alexandra Zaïnal
Concept & original design : Baudouin d'Aumeries
Assistance for programming : Marc-Olivier Méhu
Technical & hardware support : Manuel Goepfert

Contact : metmap@orbifly.com




SOURCES & CREDITS :

   NOAA